sensor_id;sensor_type;location;lat;lon;timestamp;P1;durP1;ratioP1;P2;durP2;ratioP2
11960;SDS011;6040;49.358;11.140;2022-12-11T00:00:15;17.17;;;10.80;;
11960;SDS011;6040;49.358;11.140;2022-12-11T00:02:57;19.57;;;11.20;;
11960;SDS011;6040;49.358;11.140;2022-12-11T00:05:37;19.60;;;11.43;;
11960;SDS011;6040;49.358;11.140;2022-12-11T00:08:04;18.87;;;11.10;;
11960;SDS011;6040;49.358;11.140;2022-12-11T00:10:39;17.70;;;10.23;;
11960;SDS011;6040;49.358;11.140;2022-12-11T00:13:24;18.07;;;10.43;;
11960;SDS011;6040;49.358;11.140;2022-12-11T00:15:51;16.60;;;10.50;;
11960;SDS011;6040;49.358;11.140;2022-12-11T00:18:21;17.50;;;10.67;;
11960;SDS011;6040;49.358;11.140;2022-12-11T00:20:52;16.90;;;10.63;;
11960;SDS011;6040;49.358;11.140;2022-12-11T00:23:22;17.93;;;10.53;;
11960;SDS011;6040;49.358;11.140;2022-12-11T00:26:12;17.97;;;10.70;;
11960;SDS011;6040;49.358;11.140;2022-12-11T00:28:51;18.63;;;10.83;;
11960;SDS011;6040;49.358;11.140;2022-12-11T00:31:19;17.40;;;10.60;;
11960;SDS011;6040;49.358;11.140;2022-12-11T00:33:47;16.00;;;10.53;;
11960;SDS011;6040;49.358;11.140;2022-12-11T00:36:16;16.13;;;9.83;;
11960;SDS011;6040;49.358;11.140;2022-12-11T00:38:45;19.13;;;11.80;;
11960;SDS011;6040;49.358;11.140;2022-12-11T00:41:12;16.60;;;10.27;;
11960;SDS011;6040;49.358;11.140;2022-12-11T00:43:39;20.23;;;11.57;;
11960;SDS011;6040;49.358;11.140;2022-12-11T00:46:07;20.80;;;11.83;;
11960;SDS011;6040;49.358;11.140;2022-12-11T00:48:36;18.87;;;10.93;;
11960;SDS011;6040;49.358;11.140;2022-12-11T00:51:03;18.00;;;10.63;;
11960;SDS011;6040;49.358;11.140;2022-12-11T00:53:32;16.70;;;10.60;;
11960;SDS011;6040;49.358;11.140;2022-12-11T00:55:59;16.50;;;10.07;;
11960;SDS011;6040;49.358;11.140;2022-12-11T00:58:26;18.70;;;10.60;;
11960;SDS011;6040;49.358;11.140;2022-12-11T01:00:53;18.73;;;10.73;;
11960;SDS011;6040;49.358;11.140;2022-12-11T01:03:20;19.33;;;11.13;;
11960;SDS011;6040;49.358;11.140;2022-12-11T01:05:53;18.10;;;11.23;;
11960;SDS011;6040;49.358;11.140;2022-12-11T01:08:20;19.00;;;10.93;;
11960;SDS011;6040;49.358;11.140;2022-12-11T01:16:28;18.90;;;11.67;;
11960;SDS011;6040;49.358;11.140;2022-12-11T01:19:01;19.17;;;11.40;;
11960;SDS011;6040;49.358;11.140;2022-12-11T01:21:46;17.63;;;10.00;;
11960;SDS011;6040;49.358;11.140;2022-12-11T01:24:13;20.50;;;12.13;;
11960;SDS011;6040;49.358;11.140;2022-12-11T01:26:41;18.53;;;10.83;;
11960;SDS011;6040;49.358;11.140;2022-12-11T01:29:08;19.47;;;11.80;;
11960;SDS011;6040;49.358;11.140;2022-12-11T01:31:48;19.90;;;11.73;;
11960;SDS011;6040;49.358;11.140;2022-12-11T01:34:15;21.93;;;11.30;;
11960;SDS011;6040;49.358;11.140;2022-12-11T01:36:42;18.80;;;10.73;;
11960;SDS011;6040;49.358;11.140;2022-12-11T01:39:09;19.60;;;11.00;;
11960;SDS011;6040;49.358;11.140;2022-12-11T01:41:56;19.50;;;11.80;;
11960;SDS011;6040;49.358;11.140;2022-12-11T01:47:27;21.40;;;10.70;;
11960;SDS011;6040;49.358;11.140;2022-12-11T01:50:00;21.90;;;12.47;;
11960;SDS011;6040;49.358;11.140;2022-12-11T01:52:27;20.23;;;11.17;;
11960;SDS011;6040;49.358;11.140;2022-12-11T01:54:58;19.70;;;11.67;;
11960;SDS011;6040;49.358;11.140;2022-12-11T01:57:36;21.37;;;12.40;;
11960;SDS011;6040;49.358;11.140;2022-12-11T02:00:06;20.70;;;12.47;;
11960;SDS011;6040;49.358;11.140;2022-12-11T02:02:42;20.80;;;12.07;;
11960;SDS011;6040;49.358;11.140;2022-12-11T02:05:09;22.33;;;12.23;;
11960;SDS011;6040;49.358;11.140;2022-12-11T02:07:43;21.90;;;12.57;;
11960;SDS011;6040;49.358;11.140;2022-12-11T02:10:16;20.10;;;11.83;;
11960;SDS011;6040;49.358;11.140;2022-12-11T02:13:03;22.80;;;13.50;;
11960;SDS011;6040;49.358;11.140;2022-12-11T02:15:34;16.70;;;11.53;;
11960;SDS011;6040;49.358;11.140;2022-12-11T02:18:12;18.73;;;11.43;;
11960;SDS011;6040;49.358;11.140;2022-12-11T02:20:46;21.20;;;12.47;;
11960;SDS011;6040;49.358;11.140;2022-12-11T02:23:39;17.70;;;10.87;;
11960;SDS011;6040;49.358;11.140;2022-12-11T02:26:33;17.40;;;10.53;;
11960;SDS011;6040;49.358;11.140;2022-12-11T02:29:37;17.23;;;10.50;;
11960;SDS011;6040;49.358;11.140;2022-12-11T02:32:24;18.87;;;11.33;;
11960;SDS011;6040;49.358;11.140;2022-12-11T02:34:54;16.83;;;10.83;;
11960;SDS011;6040;49.358;11.140;2022-12-11T02:37:31;19.27;;;11.33;;
11960;SDS011;6040;49.358;11.140;2022-12-11T02:40:01;19.47;;;11.77;;
11960;SDS011;6040;49.358;11.140;2022-12-11T02:42:33;19.93;;;11.17;;
11960;SDS011;6040;49.358;11.140;2022-12-11T02:45:21;18.63;;;11.60;;
11960;SDS011;6040;49.358;11.140;2022-12-11T02:47:51;18.90;;;11.23;;
11960;SDS011;6040;49.358;11.140;2022-12-11T02:50:27;18.40;;;11.23;;
11960;SDS011;6040;49.358;11.140;2022-12-11T02:52:55;17.73;;;10.80;;
11960;SDS011;6040;49.358;11.140;2022-12-11T02:55:23;21.17;;;11.90;;
11960;SDS011;6040;49.358;11.140;2022-12-11T02:57:58;18.60;;;12.00;;
11960;SDS011;6040;49.358;11.140;2022-12-11T03:00:34;19.03;;;11.97;;
11960;SDS011;6040;49.358;11.140;2022-12-11T03:03:01;20.73;;;12.13;;
11960;SDS011;6040;49.358;11.140;2022-12-11T03:05:43;22.07;;;12.27;;
11960;SDS011;6040;49.358;11.140;2022-12-11T03:08:10;21.07;;;11.43;;
11960;SDS011;6040;49.358;11.140;2022-12-11T03:10:42;17.10;;;11.13;;
11960;SDS011;6040;49.358;11.140;2022-12-11T03:13:09;16.93;;;10.43;;
11960;SDS011;6040;49.358;11.140;2022-12-11T03:15:46;16.67;;;10.20;;
11960;SDS011;6040;49.358;11.140;2022-12-11T03:18:23;19.73;;;11.87;;
11960;SDS011;6040;49.358;11.140;2022-12-11T03:20:59;19.20;;;11.13;;
11960;SDS011;6040;49.358;11.140;2022-12-11T03:23:31;19.07;;;11.70;;
11960;SDS011;6040;49.358;11.140;2022-12-11T03:26:21;18.57;;;10.90;;
11960;SDS011;6040;49.358;11.140;2022-12-11T03:28:50;16.00;;;10.27;;
11960;SDS011;6040;49.358;11.140;2022-12-11T03:31:26;16.03;;;10.67;;
11960;SDS011;6040;49.358;11.140;2022-12-11T03:33:57;16.07;;;10.33;;
11960;SDS011;6040;49.358;11.140;2022-12-11T03:37:05;16.30;;;9.60;;
11960;SDS011;6040;49.358;11.140;2022-12-11T03:40:02;15.17;;;10.37;;
11960;SDS011;6040;49.358;11.140;2022-12-11T03:42:35;16.03;;;10.17;;
11960;SDS011;6040;49.358;11.140;2022-12-11T03:45:47;17.53;;;10.50;;
11960;SDS011;6040;49.358;11.140;2022-12-11T03:48:26;16.33;;;10.63;;
11960;SDS011;6040;49.358;11.140;2022-12-11T03:51:36;17.03;;;10.27;;
11960;SDS011;6040;49.358;11.140;2022-12-11T03:54:12;15.40;;;9.97;;
11960;SDS011;6040;49.358;11.140;2022-12-11T03:56:50;15.00;;;9.33;;
11960;SDS011;6040;49.358;11.140;2022-12-11T03:59:39;15.50;;;9.83;;
11960;SDS011;6040;49.358;11.140;2022-12-11T04:02:06;13.20;;;9.13;;
11960;SDS011;6040;49.358;11.140;2022-12-11T04:04:50;13.43;;;9.47;;
11960;SDS011;6040;49.358;11.140;2022-12-11T04:07:21;14.83;;;9.23;;
11960;SDS011;6040;49.358;11.140;2022-12-11T04:09:48;14.87;;;9.63;;
11960;SDS011;6040;49.358;11.140;2022-12-11T04:12:14;15.47;;;10.03;;
11960;SDS011;6040;49.358;11.140;2022-12-11T04:14:59;16.63;;;10.37;;
11960;SDS011;6040;49.358;11.140;2022-12-11T04:17:28;16.50;;;10.10;;
11960;SDS011;6040;49.358;11.140;2022-12-11T04:20:22;13.93;;;9.60;;
11960;SDS011;6040;49.358;11.140;2022-12-11T04:23:23;17.87;;;10.33;;
11960;SDS011;6040;49.358;11.140;2022-12-11T04:26:11;14.47;;;9.20;;
11960;SDS011;6040;49.358;11.140;2022-12-11T04:28:44;15.80;;;10.03;;
11960;SDS011;6040;49.358;11.140;2022-12-11T04:31:23;17.47;;;10.60;;
11960;SDS011;6040;49.358;11.140;2022-12-11T04:33:50;16.73;;;10.53;;
11960;SDS011;6040;49.358;11.140;2022-12-11T04:36:18;19.47;;;10.60;;
11960;SDS011;6040;49.358;11.140;2022-12-11T04:38:45;17.07;;;11.20;;
11960;SDS011;6040;49.358;11.140;2022-12-11T04:41:12;17.80;;;11.30;;
11960;SDS011;6040;49.358;11.140;2022-12-11T04:43:40;16.70;;;10.30;;
11960;SDS011;6040;49.358;11.140;2022-12-11T04:46:25;18.90;;;11.27;;
11960;SDS011;6040;49.358;11.140;2022-12-11T04:49:09;18.30;;;11.50;;
11960;SDS011;6040;49.358;11.140;2022-12-11T04:54:29;19.67;;;11.93;;
11960;SDS011;6040;49.358;11.140;2022-12-11T04:57:02;18.53;;;11.07;;
11960;SDS011;6040;49.358;11.140;2022-12-11T04:59:30;20.20;;;12.33;;
11960;SDS011;6040;49.358;11.140;2022-12-11T05:01:57;18.03;;;10.87;;
11960;SDS011;6040;49.358;11.140;2022-12-11T05:04:40;19.43;;;11.73;;
11960;SDS011;6040;49.358;11.140;2022-12-11T05:07:12;18.47;;;11.10;;
11960;SDS011;6040;49.358;11.140;2022-12-11T05:09:42;17.57;;;11.40;;
11960;SDS011;6040;49.358;11.140;2022-12-11T05:12:09;16.93;;;11.13;;
11960;SDS011;6040;49.358;11.140;2022-12-11T05:14:36;18.13;;;10.80;;
11960;SDS011;6040;49.358;11.140;2022-12-11T05:17:09;18.80;;;11.17;;
11960;SDS011;6040;49.358;11.140;2022-12-11T05:19:36;18.97;;;11.70;;
11960;SDS011;6040;49.358;11.140;2022-12-11T05:22:03;16.27;;;10.63;;
11960;SDS011;6040;49.358;11.140;2022-12-11T05:24:31;18.63;;;11.20;;
11960;SDS011;6040;49.358;11.140;2022-12-11T05:26:58;17.40;;;10.43;;
11960;SDS011;6040;49.358;11.140;2022-12-11T05:29:24;16.53;;;10.10;;
11960;SDS011;6040;49.358;11.140;2022-12-11T05:31:51;18.87;;;10.17;;
11960;SDS011;6040;49.358;11.140;2022-12-11T05:34:18;18.27;;;11.47;;
11960;SDS011;6040;49.358;11.140;2022-12-11T05:36:45;17.47;;;11.13;;
11960;SDS011;6040;49.358;11.140;2022-12-11T05:39:12;20.57;;;11.27;;
11960;SDS011;6040;49.358;11.140;2022-12-11T05:41:46;19.10;;;11.23;;
11960;SDS011;6040;49.358;11.140;2022-12-11T05:44:13;20.10;;;11.40;;
11960;SDS011;6040;49.358;11.140;2022-12-11T05:46:43;17.80;;;11.17;;
11960;SDS011;6040;49.358;11.140;2022-12-11T05:49:10;21.37;;;11.07;;
11960;SDS011;6040;49.358;11.140;2022-12-11T05:51:36;16.90;;;10.27;;
11960;SDS011;6040;49.358;11.140;2022-12-11T05:54:05;17.93;;;10.63;;
11960;SDS011;6040;49.358;11.140;2022-12-11T05:56:32;17.27;;;10.63;;
11960;SDS011;6040;49.358;11.140;2022-12-11T05:59:33;16.93;;;10.30;;
11960;SDS011;6040;49.358;11.140;2022-12-11T06:02:03;17.50;;;10.73;;
11960;SDS011;6040;49.358;11.140;2022-12-11T06:04:39;15.50;;;9.87;;
11960;SDS011;6040;49.358;11.140;2022-12-11T06:07:20;17.50;;;10.90;;
11960;SDS011;6040;49.358;11.140;2022-12-11T06:09:47;18.77;;;10.33;;
11960;SDS011;6040;49.358;11.140;2022-12-11T06:12:24;18.87;;;10.60;;
11960;SDS011;6040;49.358;11.140;2022-12-11T06:14:55;19.50;;;10.77;;
11960;SDS011;6040;49.358;11.140;2022-12-11T06:17:32;16.80;;;10.07;;
11960;SDS011;6040;49.358;11.140;2022-12-11T06:19:59;18.30;;;10.63;;
11960;SDS011;6040;49.358;11.140;2022-12-11T06:22:32;18.30;;;10.37;;
11960;SDS011;6040;49.358;11.140;2022-12-11T06:24:58;16.53;;;9.80;;
11960;SDS011;6040;49.358;11.140;2022-12-11T06:27:29;20.40;;;11.77;;
11960;SDS011;6040;49.358;11.140;2022-12-11T06:29:56;18.63;;;11.20;;
11960;SDS011;6040;49.358;11.140;2022-12-11T06:32:27;18.60;;;10.57;;
11960;SDS011;6040;49.358;11.140;2022-12-11T06:34:54;18.23;;;10.57;;
11960;SDS011;6040;49.358;11.140;2022-12-11T06:37:21;19.53;;;10.90;;
11960;SDS011;6040;49.358;11.140;2022-12-11T06:39:47;19.03;;;11.27;;
11960;SDS011;6040;49.358;11.140;2022-12-11T06:42:14;18.40;;;10.27;;
11960;SDS011;6040;49.358;11.140;2022-12-11T06:44:43;18.50;;;10.90;;
11960;SDS011;6040;49.358;11.140;2022-12-11T06:47:12;18.77;;;11.03;;
11960;SDS011;6040;49.358;11.140;2022-12-11T06:50:03;18.83;;;10.40;;
11960;SDS011;6040;49.358;11.140;2022-12-11T06:52:30;19.33;;;10.63;;
11960;SDS011;6040;49.358;11.140;2022-12-11T06:54:57;21.33;;;11.63;;
11960;SDS011;6040;49.358;11.140;2022-12-11T06:57:36;18.30;;;10.63;;
11960;SDS011;6040;49.358;11.140;2022-12-11T07:00:05;20.00;;;11.80;;
11960;SDS011;6040;49.358;11.140;2022-12-11T07:02:33;19.63;;;10.60;;
11960;SDS011;6040;49.358;11.140;2022-12-11T07:05:29;18.93;;;10.43;;
11960;SDS011;6040;49.358;11.140;2022-12-11T07:08:00;18.80;;;10.83;;
11960;SDS011;6040;49.358;11.140;2022-12-11T07:10:54;17.90;;;10.17;;
11960;SDS011;6040;49.358;11.140;2022-12-11T07:13:34;16.60;;;10.17;;
11960;SDS011;6040;49.358;11.140;2022-12-11T07:16:06;19.50;;;10.80;;
11960;SDS011;6040;49.358;11.140;2022-12-11T07:18:48;18.40;;;10.20;;
11960;SDS011;6040;49.358;11.140;2022-12-11T07:21:26;19.90;;;10.50;;
11960;SDS011;6040;49.358;11.140;2022-12-11T07:23:58;19.33;;;10.63;;
11960;SDS011;6040;49.358;11.140;2022-12-11T07:26:28;19.03;;;11.13;;
11960;SDS011;6040;49.358;11.140;2022-12-11T07:28:55;17.93;;;10.50;;
11960;SDS011;6040;49.358;11.140;2022-12-11T07:31:24;18.47;;;10.97;;
11960;SDS011;6040;49.358;11.140;2022-12-11T07:33:56;17.93;;;10.40;;
11960;SDS011;6040;49.358;11.140;2022-12-11T07:36:32;21.03;;;11.03;;
11960;SDS011;6040;49.358;11.140;2022-12-11T07:39:15;19.53;;;10.10;;
11960;SDS011;6040;49.358;11.140;2022-12-11T07:41:41;17.97;;;10.97;;
11960;SDS011;6040;49.358;11.140;2022-12-11T07:44:11;20.27;;;10.93;;
11960;SDS011;6040;49.358;11.140;2022-12-11T07:46:39;18.97;;;10.43;;
11960;SDS011;6040;49.358;11.140;2022-12-11T07:49:09;20.00;;;11.73;;
11960;SDS011;6040;49.358;11.140;2022-12-11T07:51:36;16.07;;;9.90;;
11960;SDS011;6040;49.358;11.140;2022-12-11T07:54:04;18.97;;;11.00;;
11960;SDS011;6040;49.358;11.140;2022-12-11T07:56:40;19.97;;;11.37;;
11960;SDS011;6040;49.358;11.140;2022-12-11T07:59:10;20.33;;;12.03;;
11960;SDS011;6040;49.358;11.140;2022-12-11T08:01:56;19.77;;;11.77;;
11960;SDS011;6040;49.358;11.140;2022-12-11T08:04:36;17.10;;;10.53;;
11960;SDS011;6040;49.358;11.140;2022-12-11T08:07:18;20.80;;;12.20;;
11960;SDS011;6040;49.358;11.140;2022-12-11T08:09:45;17.63;;;10.77;;
11960;SDS011;6040;49.358;11.140;2022-12-11T08:12:37;19.13;;;10.93;;
11960;SDS011;6040;49.358;11.140;2022-12-11T08:15:07;19.90;;;10.13;;
11960;SDS011;6040;49.358;11.140;2022-12-11T08:20:17;20.83;;;11.03;;
11960;SDS011;6040;49.358;11.140;2022-12-11T08:22:44;17.27;;;10.60;;
11960;SDS011;6040;49.358;11.140;2022-12-11T08:25:10;17.40;;;10.33;;
11960;SDS011;6040;49.358;11.140;2022-12-11T08:27:37;17.40;;;11.20;;
11960;SDS011;6040;49.358;11.140;2022-12-11T08:30:04;19.77;;;11.13;;
11960;SDS011;6040;49.358;11.140;2022-12-11T08:32:32;20.27;;;12.30;;
11960;SDS011;6040;49.358;11.140;2022-12-11T08:35:15;19.17;;;11.07;;
11960;SDS011;6040;49.358;11.140;2022-12-11T08:37:42;17.43;;;10.93;;
11960;SDS011;6040;49.358;11.140;2022-12-11T08:40:09;18.00;;;10.67;;
11960;SDS011;6040;49.358;11.140;2022-12-11T08:42:57;17.20;;;11.23;;
11960;SDS011;6040;49.358;11.140;2022-12-11T08:45:54;16.87;;;10.83;;
11960;SDS011;6040;49.358;11.140;2022-12-11T08:48:28;15.13;;;10.27;;
11960;SDS011;6040;49.358;11.140;2022-12-11T08:51:06;16.63;;;10.30;;
11960;SDS011;6040;49.358;11.140;2022-12-11T08:53:50;16.93;;;10.53;;
11960;SDS011;6040;49.358;11.140;2022-12-11T08:56:25;15.10;;;10.27;;
11960;SDS011;6040;49.358;11.140;2022-12-11T08:58:58;17.57;;;10.23;;
11960;SDS011;6040;49.358;11.140;2022-12-11T09:01:51;16.07;;;9.77;;
11960;SDS011;6040;49.358;11.140;2022-12-11T09:04:19;15.37;;;9.90;;
11960;SDS011;6040;49.358;11.140;2022-12-11T09:06:47;15.07;;;10.17;;
11960;SDS011;6040;49.358;11.140;2022-12-11T09:09:17;13.93;;;9.60;;
11960;SDS011;6040;49.358;11.140;2022-12-11T09:11:49;13.57;;;9.40;;
11960;SDS011;6040;49.358;11.140;2022-12-11T09:14:39;13.17;;;8.97;;
11960;SDS011;6040;49.358;11.140;2022-12-11T09:17:16;16.00;;;9.63;;
11960;SDS011;6040;49.358;11.140;2022-12-11T09:19:44;14.23;;;9.97;;
11960;SDS011;6040;49.358;11.140;2022-12-11T09:22:12;14.60;;;10.00;;
11960;SDS011;6040;49.358;11.140;2022-12-11T09:24:48;14.03;;;9.60;;
11960;SDS011;6040;49.358;11.140;2022-12-11T09:27:36;15.07;;;9.80;;
11960;SDS011;6040;49.358;11.140;2022-12-11T09:30:16;14.50;;;10.10;;
11960;SDS011;6040;49.358;11.140;2022-12-11T09:35:21;16.90;;;10.80;;
11960;SDS011;6040;49.358;11.140;2022-12-11T09:37:49;18.37;;;10.70;;
11960;SDS011;6040;49.358;11.140;2022-12-11T09:40:19;12.93;;;8.93;;
11960;SDS011;6040;49.358;11.140;2022-12-11T09:42:53;16.13;;;10.73;;
11960;SDS011;6040;49.358;11.140;2022-12-11T09:45:58;16.43;;;9.57;;
11960;SDS011;6040;49.358;11.140;2022-12-11T09:51:42;13.90;;;9.93;;
11960;SDS011;6040;49.358;11.140;2022-12-11T09:54:27;14.87;;;10.23;;
11960;SDS011;6040;49.358;11.140;2022-12-11T09:57:12;14.80;;;10.00;;
11960;SDS011;6040;49.358;11.140;2022-12-11T10:06:11;15.27;;;9.70;;
11960;SDS011;6040;49.358;11.140;2022-12-11T10:08:48;13.83;;;9.93;;
11960;SDS011;6040;49.358;11.140;2022-12-11T10:11:36;14.23;;;9.33;;
11960;SDS011;6040;49.358;11.140;2022-12-11T10:14:15;15.83;;;10.03;;
11960;SDS011;6040;49.358;11.140;2022-12-11T10:16:48;14.03;;;9.77;;
11960;SDS011;6040;49.358;11.140;2022-12-11T10:19:19;14.73;;;9.73;;
11960;SDS011;6040;49.358;11.140;2022-12-11T10:21:48;14.23;;;9.73;;
11960;SDS011;6040;49.358;11.140;2022-12-11T10:24:17;17.03;;;11.00;;
11960;SDS011;6040;49.358;11.140;2022-12-11T10:26:51;12.13;;;8.87;;
11960;SDS011;6040;49.358;11.140;2022-12-11T10:29:57;11.03;;;7.93;;
11960;SDS011;6040;49.358;11.140;2022-12-11T10:32:58;12.70;;;8.73;;
11960;SDS011;6040;49.358;11.140;2022-12-11T10:35:34;13.27;;;8.57;;
11960;SDS011;6040;49.358;11.140;2022-12-11T10:38:23;11.23;;;8.03;;
11960;SDS011;6040;49.358;11.140;2022-12-11T10:43:41;11.90;;;8.37;;
11960;SDS011;6040;49.358;11.140;2022-12-11T10:46:24;11.53;;;7.93;;
11960;SDS011;6040;49.358;11.140;2022-12-11T10:48:52;12.20;;;8.43;;
11960;SDS011;6040;49.358;11.140;2022-12-11T10:51:39;14.73;;;8.43;;
11960;SDS011;6040;49.358;11.140;2022-12-11T10:54:07;11.83;;;7.63;;
11960;SDS011;6040;49.358;11.140;2022-12-11T10:56:55;10.80;;;7.80;;
11960;SDS011;6040;49.358;11.140;2022-12-11T10:59:43;9.87;;;7.20;;
11960;SDS011;6040;49.358;11.140;2022-12-11T11:02:17;12.57;;;7.17;;
11960;SDS011;6040;49.358;11.140;2022-12-11T11:05:24;9.43;;;6.40;;
11960;SDS011;6040;49.358;11.140;2022-12-11T11:10:49;8.37;;;6.50;;
11960;SDS011;6040;49.358;11.140;2022-12-11T11:11:28;9.40;;;6.57;;
11960;SDS011;6040;49.358;11.140;2022-12-11T11:14:04;10.03;;;6.43;;
11960;SDS011;6040;49.358;11.140;2022-12-11T11:16:38;8.83;;;6.73;;
11960;SDS011;6040;49.358;11.140;2022-12-11T11:19:05;9.33;;;6.53;;
11960;SDS011;6040;49.358;11.140;2022-12-11T11:21:33;9.70;;;6.97;;
11960;SDS011;6040;49.358;11.140;2022-12-11T11:24:01;11.27;;;6.70;;
11960;SDS011;6040;49.358;11.140;2022-12-11T11:26:29;11.90;;;7.57;;
11960;SDS011;6040;49.358;11.140;2022-12-11T11:29:04;10.83;;;7.57;;
11960;SDS011;6040;49.358;11.140;2022-12-11T11:31:31;14.10;;;7.90;;
11960;SDS011;6040;49.358;11.140;2022-12-11T11:34:04;11.07;;;7.00;;
11960;SDS011;6040;49.358;11.140;2022-12-11T11:36:43;12.30;;;8.33;;
11960;SDS011;6040;49.358;11.140;2022-12-11T11:39:45;11.33;;;7.67;;
11960;SDS011;6040;49.358;11.140;2022-12-11T11:42:12;12.73;;;8.63;;
11960;SDS011;6040;49.358;11.140;2022-12-11T11:44:59;14.20;;;7.53;;
11960;SDS011;6040;49.358;11.140;2022-12-11T11:47:40;10.47;;;7.83;;
11960;SDS011;6040;49.358;11.140;2022-12-11T11:50:16;9.93;;;7.30;;
11960;SDS011;6040;49.358;11.140;2022-12-11T11:52:48;13.00;;;8.07;;
11960;SDS011;6040;49.358;11.140;2022-12-11T11:55:36;11.03;;;8.07;;
11960;SDS011;6040;49.358;11.140;2022-12-11T11:58:15;10.40;;;7.27;;
11960;SDS011;6040;49.358;11.140;2022-12-11T12:00:47;11.50;;;7.73;;
11960;SDS011;6040;49.358;11.140;2022-12-11T12:03:36;11.63;;;7.53;;
11960;SDS011;6040;49.358;11.140;2022-12-11T12:06:29;10.80;;;7.37;;
11960;SDS011;6040;49.358;11.140;2022-12-11T12:12:23;13.03;;;8.30;;
11960;SDS011;6040;49.358;11.140;2022-12-11T12:15:01;12.77;;;8.20;;
11960;SDS011;6040;49.358;11.140;2022-12-11T12:17:40;13.37;;;8.47;;
11960;SDS011;6040;49.358;11.140;2022-12-11T12:20:26;17.90;;;8.70;;
11960;SDS011;6040;49.358;11.140;2022-12-11T12:23:06;11.13;;;7.67;;
11960;SDS011;6040;49.358;11.140;2022-12-11T12:25:47;11.87;;;8.13;;
11960;SDS011;6040;49.358;11.140;2022-12-11T12:28:21;10.83;;;7.37;;
11960;SDS011;6040;49.358;11.140;2022-12-11T12:31:08;10.33;;;7.50;;
11960;SDS011;6040;49.358;11.140;2022-12-11T12:34:33;10.63;;;7.20;;
11960;SDS011;6040;49.358;11.140;2022-12-11T12:37:13;11.03;;;7.70;;
11960;SDS011;6040;49.358;11.140;2022-12-11T12:40:02;9.97;;;7.10;;
11960;SDS011;6040;49.358;11.140;2022-12-11T12:42:41;10.47;;;7.00;;
11960;SDS011;6040;49.358;11.140;2022-12-11T12:45:21;10.87;;;7.37;;
11960;SDS011;6040;49.358;11.140;2022-12-11T12:48:11;9.77;;;6.90;;
11960;SDS011;6040;49.358;11.140;2022-12-11T12:50:39;11.40;;;7.13;;
11960;SDS011;6040;49.358;11.140;2022-12-11T12:53:08;10.03;;;6.90;;
11960;SDS011;6040;49.358;11.140;2022-12-11T12:55:42;11.07;;;7.00;;
11960;SDS011;6040;49.358;11.140;2022-12-11T12:58:22;10.60;;;7.03;;
11960;SDS011;6040;49.358;11.140;2022-12-11T13:00:51;13.20;;;8.23;;
11960;SDS011;6040;49.358;11.140;2022-12-11T13:03:19;10.73;;;8.10;;
11960;SDS011;6040;49.358;11.140;2022-12-11T13:05:54;12.93;;;7.97;;
11960;SDS011;6040;49.358;11.140;2022-12-11T13:08:24;11.20;;;7.50;;
11960;SDS011;6040;49.358;11.140;2022-12-11T13:10:59;12.95;;;8.70;;
11960;SDS011;6040;49.358;11.140;2022-12-11T13:13:32;12.57;;;7.60;;
11960;SDS011;6040;49.358;11.140;2022-12-11T13:18:58;10.27;;;6.93;;
11960;SDS011;6040;49.358;11.140;2022-12-11T13:22:02;10.67;;;7.37;;
11960;SDS011;6040;49.358;11.140;2022-12-11T13:24:48;10.23;;;7.43;;
11960;SDS011;6040;49.358;11.140;2022-12-11T13:27:35;11.40;;;7.27;;
11960;SDS011;6040;49.358;11.140;2022-12-11T13:32:48;11.20;;;7.50;;
11960;SDS011;6040;49.358;11.140;2022-12-11T13:35:23;10.90;;;7.70;;
11960;SDS011;6040;49.358;11.140;2022-12-11T13:40:56;11.03;;;7.47;;
11960;SDS011;6040;49.358;11.140;2022-12-11T13:43:26;10.70;;;7.57;;
11960;SDS011;6040;49.358;11.140;2022-12-11T13:45:55;10.73;;;7.43;;
11960;SDS011;6040;49.358;11.140;2022-12-11T13:48:26;11.03;;;7.60;;
11960;SDS011;6040;49.358;11.140;2022-12-11T13:50:55;9.23;;;6.70;;
11960;SDS011;6040;49.358;11.140;2022-12-11T13:53:23;9.13;;;7.07;;
11960;SDS011;6040;49.358;11.140;2022-12-11T13:55:57;10.13;;;6.00;;
11960;SDS011;6040;49.358;11.140;2022-12-11T13:58:27;10.17;;;6.20;;
11960;SDS011;6040;49.358;11.140;2022-12-11T14:01:01;8.73;;;5.77;;
11960;SDS011;6040;49.358;11.140;2022-12-11T14:03:48;8.23;;;5.80;;
11960;SDS011;6040;49.358;11.140;2022-12-11T14:06:19;9.07;;;5.77;;
11960;SDS011;6040;49.358;11.140;2022-12-11T14:08:51;7.53;;;5.10;;
11960;SDS011;6040;49.358;11.140;2022-12-11T14:11:21;10.77;;;6.50;;
11960;SDS011;6040;49.358;11.140;2022-12-11T14:13:53;9.07;;;5.70;;
11960;SDS011;6040;49.358;11.140;2022-12-11T14:16:21;8.87;;;5.57;;
11960;SDS011;6040;49.358;11.140;2022-12-11T14:18:50;8.07;;;5.13;;
11960;SDS011;6040;49.358;11.140;2022-12-11T14:21:27;8.93;;;5.57;;
11960;SDS011;6040;49.358;11.140;2022-12-11T14:24:01;8.60;;;5.10;;
11960;SDS011;6040;49.358;11.140;2022-12-11T14:26:48;8.23;;;5.07;;
11960;SDS011;6040;49.358;11.140;2022-12-11T14:29:23;7.37;;;4.77;;
11960;SDS011;6040;49.358;11.140;2022-12-11T14:31:51;9.53;;;5.27;;
11960;SDS011;6040;49.358;11.140;2022-12-11T14:34:20;6.10;;;4.43;;
11960;SDS011;6040;49.358;11.140;2022-12-11T14:36:50;7.30;;;4.70;;
11960;SDS011;6040;49.358;11.140;2022-12-11T14:39:19;8.30;;;5.20;;
11960;SDS011;6040;49.358;11.140;2022-12-11T14:41:53;9.50;;;5.37;;
11960;SDS011;6040;49.358;11.140;2022-12-11T14:44:26;8.57;;;5.40;;
11960;SDS011;6040;49.358;11.140;2022-12-11T14:46:58;9.83;;;5.47;;
11960;SDS011;6040;49.358;11.140;2022-12-11T14:49:32;7.50;;;5.33;;
11960;SDS011;6040;49.358;11.140;2022-12-11T14:52:05;8.40;;;4.93;;
11960;SDS011;6040;49.358;11.140;2022-12-11T14:54:50;8.33;;;5.43;;
11960;SDS011;6040;49.358;11.140;2022-12-11T14:57:21;9.10;;;5.50;;
11960;SDS011;6040;49.358;11.140;2022-12-11T14:59:54;14.00;;;7.77;;
11960;SDS011;6040;49.358;11.140;2022-12-11T15:02:27;14.93;;;6.40;;
11960;SDS011;6040;49.358;11.140;2022-12-11T15:05:06;10.43;;;5.90;;
11960;SDS011;6040;49.358;11.140;2022-12-11T15:08:14;7.97;;;4.97;;
11960;SDS011;6040;49.358;11.140;2022-12-11T15:10:54;7.90;;;5.23;;
11960;SDS011;6040;49.358;11.140;2022-12-11T15:13:31;9.57;;;5.80;;
11960;SDS011;6040;49.358;11.140;2022-12-11T15:16:15;6.83;;;5.30;;
11960;SDS011;6040;49.358;11.140;2022-12-11T15:18:49;9.23;;;5.67;;
11960;SDS011;6040;49.358;11.140;2022-12-11T15:21:17;8.37;;;5.40;;
11960;SDS011;6040;49.358;11.140;2022-12-11T15:24:03;7.80;;;4.97;;
11960;SDS011;6040;49.358;11.140;2022-12-11T15:27:21;8.23;;;5.10;;
11960;SDS011;6040;49.358;11.140;2022-12-11T15:29:50;8.03;;;5.13;;
11960;SDS011;6040;49.358;11.140;2022-12-11T15:32:24;8.37;;;5.47;;
11960;SDS011;6040;49.358;11.140;2022-12-11T15:35:00;8.20;;;5.23;;
11960;SDS011;6040;49.358;11.140;2022-12-11T15:37:33;7.60;;;5.10;;
11960;SDS011;6040;49.358;11.140;2022-12-11T15:40:04;9.10;;;5.80;;
11960;SDS011;6040;49.358;11.140;2022-12-11T15:42:34;8.73;;;5.43;;
11960;SDS011;6040;49.358;11.140;2022-12-11T15:45:14;7.43;;;4.80;;
11960;SDS011;6040;49.358;11.140;2022-12-11T15:47:44;9.53;;;5.43;;
11960;SDS011;6040;49.358;11.140;2022-12-11T15:53:33;9.20;;;5.73;;
11960;SDS011;6040;49.358;11.140;2022-12-11T15:56:00;9.67;;;6.03;;
11960;SDS011;6040;49.358;11.140;2022-12-11T15:58:42;8.67;;;5.47;;
11960;SDS011;6040;49.358;11.140;2022-12-11T16:01:18;8.83;;;6.20;;